Aérodrome :
LOGIN :

S'inscrire | Disclaimer

   EN    FR    IT 

 










Légende :    VFR   VFR Marginal   IFR   IFR Intensif   IFR Très Intensif
Visi : 
Plafond : 
>= 8 km
>= 3000ft
5 à 8 km
1000 à 3000 ft
1500m à 5 km
500 à 1000 ft
800 à 1500m
200 à 500 ft
< 800m
< 200 ft
Symboles :   Orages  Brouillard  Fortes neiges  Fortes précipitations  Vent > 20 kt
SIGMETs :   Divers  Orages  Givrage  Turbulence  Onde Orograph.  Cendres Volcan.






- Altitude de l'aérodrome : 200 ft


EBBL - Klein Brogel AB

DERNIER METAR :
  • 071425Z AUTO 23010KT 9999 OVC042/// 09/06 Q1014 BLU

METARs EXPIRÉS :
  • 071355Z AUTO 23008KT 9999 OVC043/// 09/05 Q1014 BLU
  • 071325Z AUTO 23008KT 9999 OVC044/// 10/05 Q1014 BLU
  • 071255Z AUTO 23010KT 9999 OVC044/// 10/05 Q1014 BLU
  • 071225Z AUTO 24009KT 9999 OVC044/// 10/06 Q1014 BLU
  • 071155Z AUTO 24009KT 9999 OVC046/// 09/06 Q1014 BLU

TAF TAF EBBL
Valide du 07 à 13h jusqu'au 07 à 22h UTC


071141Z 0713/0722 24008KT 9999 FEW020 BKN045



MET'MAP, la Météo Aéronautique d'un coup d'oeil ! - Copyright ORBIFLY Décembre 2007 - Disclaimer

ORBIFLY MET'MAP TEAM :

Programmation & Développement : Alexandra Zaïnal
Sur une idée originale de : Baudouin d'Aumeries
Assistance à la programmation : Marc-Olivier Méhu
Soutien technique & logistique : Manuel Goepfert

Contact : metmap@orbifly.com




SOURCES & CREDITS :

   NOAA